ULLI/LED METAR and TAF weather

Enter ICAO airport designator
Station Type Date Time Source
ULLI METAR 2019/03/21 03:30 UTC NOAA

ULLI 210330Z 28006MPS 9999 BKN005 OVC017 01/M00 Q1014 R28L/290050 NOSIG RMK OBST OBSC


Station Type Date Time Source
ULLI Decoded METAR 2019/03/21 03:30 UTC NOAA

St. Peterburg, Russia (ULLI) 59-58N 030-18E 6M
Mar 20, 2019 - 11:30 PM EDT / 2019.03.21 0330 UTC
Wind: from the W (280 degrees) at 13 MPH (12 KT):0
Visibility: greater than 7 mile(s):0
Sky conditions: overcast
Temperature: 33 F (1 C)
Windchill: 23 F (-5 C):1
Dew Point: 32 F (0 C)
Relative Humidity: 93%
Pressure (altimeter): 29.94 in. Hg (1014 hPa)
ob: ULLI 210330Z 28006MPS 9999 BKN005 OVC017 01/M00 Q1014 R28L/290050 NOSIG RMK OBST OBSC
cycle: 3

Station Type Date Time Source
ULLI TAF 2019/03/21 03:24 UTC NOAA

TAF TAF ULLI 210155Z 2103/2203 27006G13MPS 5000 BR BKN007
TEMPO 2103/2106 3100 -SHSNRA BR BKN004 BKN015CB
BECMG 2106/2107 6000 NSW BKN011
BECMG 2117/2118 24003MPS 4000 -RASN BR
TEMPO 2118/2124 20003MPS 3100 -SHSNRA BKN010 BKN015CB
BECMG 2200/2201 28007G13MPS BKN007

Example: see airport list